createdAt,value
2022-11-20T00:00:22.632Z,16
2022-11-20T00:01:22.550Z,15
2022-11-20T00:02:22.612Z,16
2022-11-20T00:03:22.561Z,19
2022-11-20T00:04:22.551Z,19
2022-11-20T00:05:22.556Z,15
2022-11-20T00:07:22.595Z,16
2022-11-20T00:08:22.555Z,18
2022-11-20T00:09:22.900Z,15
2022-11-20T00:10:22.564Z,16
2022-11-20T00:11:22.551Z,18
2022-11-20T00:12:22.605Z,15
2022-11-20T00:13:22.547Z,18
2022-11-20T00:14:22.551Z,17
2022-11-20T00:15:22.549Z,19
2022-11-20T00:16:22.561Z,16
2022-11-20T00:17:22.623Z,19
2022-11-20T00:18:22.553Z,18
2022-11-20T00:19:22.854Z,15
2022-11-20T00:21:22.548Z,16
2022-11-20T00:22:22.550Z,16
2022-11-20T00:23:22.552Z,18
2022-11-20T00:24:22.623Z,17
2022-11-20T00:25:22.573Z,16
2022-11-20T00:26:22.545Z,15
2022-11-20T00:28:22.545Z,15
2022-11-20T00:29:22.710Z,18
2022-11-20T00:30:22.559Z,18
2022-11-20T00:31:22.589Z,18
2022-11-20T00:32:22.542Z,20
2022-11-20T00:33:22.546Z,17
2022-11-20T00:34:22.550Z,15
2022-11-20T00:35:22.555Z,17
2022-11-20T00:36:22.555Z,20
2022-11-20T00:38:22.553Z,21
2022-11-20T00:39:22.806Z,17
2022-11-20T00:40:22.541Z,20
2022-11-20T00:41:22.598Z,16
2022-11-20T00:42:22.540Z,16
2022-11-20T00:43:22.557Z,14
2022-11-20T00:44:22.549Z,14
2022-11-20T00:45:22.548Z,19
2022-11-20T00:46:22.630Z,18
2022-11-20T00:47:22.546Z,17
2022-11-20T00:48:22.544Z,16
2022-11-20T00:49:22.880Z,19
2022-11-20T00:50:22.552Z,18
2022-11-20T00:51:22.544Z,17
2022-11-20T00:53:22.539Z,21
2022-11-20T00:54:22.547Z,19
2022-11-20T00:55:22.548Z,16
2022-11-20T00:56:22.572Z,15
2022-11-20T00:58:22.549Z,18
2022-11-20T00:59:22.850Z,18
2022-11-20T01:00:22.569Z,18
2022-11-20T01:01:22.650Z,15
2022-11-20T01:02:22.546Z,17
2022-11-20T01:03:26.809Z,18
2022-11-20T01:04:22.550Z,18
2022-11-20T01:05:22.860Z,21
2022-11-20T01:06:22.560Z,19
2022-11-20T01:07:22.676Z,17
2022-11-20T01:09:22.772Z,17
2022-11-20T01:10:22.552Z,19
2022-11-20T01:11:22.539Z,19
2022-11-20T01:12:22.536Z,16
2022-11-20T01:14:22.560Z,15
2022-11-20T01:15:22.547Z,16
2022-11-20T01:16:22.543Z,18
2022-11-20T01:17:22.955Z,19
2022-11-20T01:18:22.548Z,15
2022-11-20T01:19:22.707Z,17
2022-11-20T01:20:22.562Z,18
2022-11-20T01:21:22.543Z,16
2022-11-20T01:23:22.554Z,19
2022-11-20T01:24:22.549Z,16
2022-11-20T01:25:22.546Z,17
2022-11-20T01:26:22.553Z,17
2022-11-20T01:27:22.548Z,16
2022-11-20T01:28:22.543Z,18
2022-11-20T01:29:22.788Z,16
2022-11-20T01:30:22.540Z,16
2022-11-20T01:31:22.538Z,17
2022-11-20T01:32:22.554Z,19
2022-11-20T01:33:22.542Z,17
2022-11-20T01:34:22.537Z,16
2022-11-20T01:35:22.538Z,17
2022-11-20T01:36:22.536Z,17
2022-11-20T01:37:22.537Z,20
2022-11-20T01:38:22.555Z,17
2022-11-20T01:39:22.761Z,18
2022-11-20T01:40:22.773Z,17
2022-11-20T01:42:22.538Z,15
2022-11-20T01:43:22.538Z,17
2022-11-20T01:44:22.547Z,19
2022-11-20T01:45:22.538Z,19
2022-11-20T01:46:22.546Z,19
2022-11-20T01:47:22.539Z,18
2022-11-20T01:48:22.543Z,18
2022-11-20T01:49:22.712Z,17
2022-11-20T01:50:22.545Z,19
2022-11-20T01:51:22.540Z,19
2022-11-20T01:53:22.562Z,19
2022-11-20T01:54:22.548Z,16
2022-11-20T01:55:22.536Z,18
2022-11-20T01:56:22.546Z,20
2022-11-20T01:57:22.594Z,16
2022-11-20T01:58:22.551Z,15
2022-11-20T01:59:22.749Z,17
2022-11-20T02:00:22.536Z,19
2022-11-20T02:01:22.629Z,21
2022-11-20T02:02:22.539Z,18
2022-11-20T02:03:22.554Z,15
2022-11-20T02:04:22.544Z,16
2022-11-20T02:05:22.535Z,16
2022-11-20T02:06:22.537Z,17
2022-11-20T02:07:22.566Z,22
2022-11-20T02:08:22.669Z,20
2022-11-20T02:09:22.866Z,23
2022-11-20T02:10:22.533Z,21
2022-11-20T02:11:22.541Z,16
2022-11-20T02:12:22.535Z,19
2022-11-20T02:13:22.537Z,18
2022-11-20T02:14:22.540Z,15
2022-11-20T02:15:26.293Z,18
2022-11-20T02:16:22.530Z,17
2022-11-20T02:17:22.539Z,19
2022-11-20T02:18:22.533Z,19
2022-11-20T02:19:22.905Z,16
2022-11-20T02:20:22.544Z,18
2022-11-20T02:21:22.531Z,15
2022-11-20T02:22:22.532Z,14
2022-11-20T02:23:22.537Z,21
2022-11-20T02:24:22.537Z,18
2022-11-20T02:25:22.536Z,17
2022-11-20T02:26:22.547Z,17
2022-11-20T02:27:22.535Z,17
2022-11-20T02:28:22.531Z,18
2022-11-20T02:29:22.721Z,19
2022-11-20T02:30:22.546Z,18
2022-11-20T02:31:22.541Z,19
2022-11-20T02:32:22.541Z,18
2022-11-20T02:33:22.567Z,18
2022-11-20T02:35:22.538Z,19
2022-11-20T02:36:22.530Z,17
2022-11-20T02:37:22.538Z,16
2022-11-20T02:38:22.535Z,19
2022-11-20T02:39:22.806Z,17
2022-11-20T02:40:22.538Z,16
2022-11-20T02:42:22.529Z,18
2022-11-20T02:43:22.580Z,16
2022-11-20T02:44:22.529Z,18
2022-11-20T02:45:22.529Z,21
2022-11-20T02:46:22.538Z,17
2022-11-20T02:47:22.534Z,17
2022-11-20T02:48:25.126Z,17
2022-11-20T02:49:22.720Z,18
2022-11-20T02:50:22.548Z,17
2022-11-20T02:51:22.544Z,16
2022-11-20T02:52:22.534Z,18
2022-11-20T02:53:22.530Z,18
2022-11-20T02:54:22.531Z,17
2022-11-20T02:55:22.531Z,16
2022-11-20T02:56:22.542Z,17
2022-11-20T02:57:22.533Z,20
2022-11-20T02:59:22.861Z,19
2022-11-20T03:00:22.535Z,19
2022-11-20T03:01:22.547Z,18
2022-11-20T03:02:22.541Z,20
2022-11-20T03:03:22.528Z,18
2022-11-20T03:04:22.529Z,19
2022-11-20T03:05:22.531Z,16
2022-11-20T03:06:22.554Z,18
2022-11-20T03:07:22.551Z,20
2022-11-20T03:08:22.539Z,21
2022-11-20T03:09:22.800Z,19
2022-11-20T03:10:22.588Z,18
2022-11-20T03:11:22.535Z,20
2022-11-20T03:12:22.533Z,22
2022-11-20T03:13:22.525Z,19
2022-11-20T03:14:22.536Z,21
2022-11-20T03:15:22.591Z,21
2022-11-20T03:16:22.524Z,18
2022-11-20T03:17:22.532Z,17
2022-11-20T03:18:22.527Z,18
2022-11-20T03:19:22.791Z,19
2022-11-20T03:20:22.589Z,19
2022-11-20T03:21:22.535Z,19
2022-11-20T03:22:22.525Z,20
2022-11-20T03:23:22.529Z,20
2022-11-20T03:24:22.529Z,21
2022-11-20T03:25:22.533Z,19
2022-11-20T03:26:22.529Z,20
2022-11-20T03:27:22.535Z,19
2022-11-20T03:28:22.533Z,21
2022-11-20T03:29:22.888Z,23
2022-11-20T03:30:26.230Z,20
2022-11-20T03:31:22.527Z,22
2022-11-20T03:32:22.596Z,20
2022-11-20T03:33:22.528Z,24
2022-11-20T03:34:22.530Z,19
2022-11-20T03:35:22.530Z,21
2022-11-20T03:36:22.541Z,19
2022-11-20T03:37:22.594Z,20
2022-11-20T03:38:22.529Z,19
2022-11-20T03:39:22.746Z,21
2022-11-20T03:40:22.527Z,20
2022-11-20T03:41:22.527Z,19
2022-11-20T03:42:22.523Z,19
2022-11-20T03:43:22.531Z,23
2022-11-20T03:44:22.533Z,23
2022-11-20T03:45:22.528Z,23
2022-11-20T03:46:22.531Z,19
2022-11-20T03:47:22.537Z,21
2022-11-20T03:48:22.528Z,18
2022-11-20T03:49:22.937Z,19
2022-11-20T03:50:22.551Z,21
2022-11-20T03:51:22.529Z,18
2022-11-20T03:52:22.533Z,18
2022-11-20T03:53:22.533Z,21
2022-11-20T03:54:22.523Z,20
2022-11-20T03:55:22.527Z,22
2022-11-20T03:56:22.529Z,19
2022-11-20T03:57:22.529Z,20
2022-11-20T03:58:22.540Z,21
2022-11-20T03:59:22.675Z,18
2022-11-20T04:00:22.522Z,18
2022-11-20T04:01:22.572Z,16
2022-11-20T04:02:22.570Z,20
2022-11-20T04:03:22.526Z,23
2022-11-20T04:04:22.522Z,19
2022-11-20T04:06:22.607Z,19
2022-11-20T04:07:22.560Z,19
2022-11-20T04:08:22.549Z,20
2022-11-20T04:09:22.774Z,20
2022-11-20T04:10:22.551Z,19
2022-11-20T04:11:22.531Z,22
2022-11-20T04:12:22.540Z,17
2022-11-20T04:13:22.531Z,20
2022-11-20T04:14:22.528Z,21
2022-11-20T04:15:22.526Z,18
2022-11-20T04:16:22.524Z,23
2022-11-20T04:17:22.523Z,18
2022-11-20T04:18:22.520Z,19
2022-11-20T04:19:22.792Z,19
2022-11-20T04:20:22.532Z,20
2022-11-20T04:21:22.525Z,18
2022-11-20T04:23:28.466Z,20
2022-11-20T04:24:22.522Z,20
2022-11-20T04:25:22.532Z,22
2022-11-20T04:26:22.531Z,20
2022-11-20T04:27:22.526Z,19
2022-11-20T04:28:22.523Z,21
2022-11-20T04:29:22.769Z,23
2022-11-20T04:30:22.527Z,19
2022-11-20T04:31:22.526Z,21
2022-11-20T04:32:22.530Z,20
2022-11-20T04:33:22.534Z,19
2022-11-20T04:34:22.529Z,22
2022-11-20T04:35:22.521Z,17
2022-11-20T04:36:22.525Z,23
2022-11-20T04:37:22.519Z,18
2022-11-20T04:38:22.534Z,25
2022-11-20T04:39:22.814Z,18
2022-11-20T04:40:22.582Z,19
2022-11-20T04:41:22.519Z,18
2022-11-20T04:42:22.564Z,19
2022-11-20T04:43:22.522Z,19
2022-11-20T04:44:22.524Z,21
2022-11-20T04:45:22.524Z,19
2022-11-20T04:46:22.526Z,19
2022-11-20T04:48:22.528Z,21
2022-11-20T04:49:22.881Z,17
2022-11-20T04:50:22.533Z,22
2022-11-20T04:51:22.522Z,21
2022-11-20T04:52:22.519Z,19
2022-11-20T04:53:22.535Z,20
2022-11-20T04:54:22.523Z,17
2022-11-20T04:55:22.516Z,22
2022-11-20T04:56:22.521Z,20
2022-11-20T04:57:22.524Z,17
2022-11-20T04:58:22.525Z,17
2022-11-20T04:59:22.894Z,17
2022-11-20T05:02:22.520Z,21
2022-11-20T05:03:22.521Z,18
2022-11-20T05:04:22.578Z,18
2022-11-20T05:05:22.527Z,18
2022-11-20T05:06:22.530Z,21
2022-11-20T05:07:22.575Z,18
2022-11-20T05:08:22.518Z,20
2022-11-20T05:09:22.943Z,22
2022-11-20T05:10:22.514Z,20
2022-11-20T05:11:22.538Z,18
2022-11-20T05:12:22.518Z,19
2022-11-20T05:13:22.512Z,18
2022-11-20T05:14:22.526Z,20
2022-11-20T05:15:22.522Z,17
2022-11-20T05:16:22.521Z,21
2022-11-20T05:17:22.541Z,18
2022-11-20T05:18:22.525Z,21
2022-11-20T05:19:22.741Z,21
2022-11-20T05:20:22.515Z,21
2022-11-20T05:21:22.520Z,19
2022-11-20T05:22:22.536Z,23
2022-11-20T05:23:22.533Z,25
2022-11-20T05:24:22.517Z,18
2022-11-20T05:25:22.518Z,21
2022-11-20T05:26:22.574Z,20
2022-11-20T05:27:22.519Z,20
2022-11-20T05:28:22.525Z,21
2022-11-20T05:30:22.522Z,22
2022-11-20T05:36:24.401Z,21
2022-11-20T05:47:24.403Z,22
2022-11-20T06:47:24.389Z,22
2022-11-20T09:08:24.387Z,25
2022-11-20T11:08:24.372Z,31
2022-11-20T13:44:24.796Z,22
2022-11-20T14:29:24.448Z,23
2022-11-20T15:34:24.647Z,31
2022-11-20T15:36:24.384Z,29
2022-11-20T15:37:29.761Z,31
2022-11-20T15:39:24.376Z,30
2022-11-20T15:40:24.389Z,31
2022-11-20T15:41:24.386Z,33
2022-11-20T15:42:24.386Z,33
2022-11-20T15:43:24.378Z,33
2022-11-20T16:29:24.387Z,29
2022-11-20T16:49:24.373Z,33
2022-11-20T16:50:24.392Z,34
2022-11-20T17:16:24.375Z,35
2022-11-20T17:29:24.428Z,39
2022-11-20T17:56:24.386Z,39
2022-11-20T18:03:24.382Z,41
2022-11-20T18:24:24.765Z,38
2022-11-20T18:31:24.371Z,42
2022-11-20T18:38:24.380Z,37
2022-11-20T18:59:24.374Z,34
2022-11-20T19:13:24.383Z,36
2022-11-20T19:20:24.386Z,49
2022-11-20T19:34:24.378Z,33
2022-11-20T19:41:24.375Z,39
2022-11-20T20:00:29.676Z,37
2022-11-20T20:19:24.615Z,36
2022-11-20T20:21:24.377Z,35
2022-11-20T20:28:24.382Z,36
2022-11-20T20:35:24.482Z,37
2022-11-20T20:42:24.378Z,36
2022-11-20T20:55:24.381Z,33
2022-11-20T20:59:24.755Z,36
2022-11-20T21:01:24.467Z,32
2022-11-20T21:03:24.385Z,36
2022-11-20T21:12:24.394Z,29
2022-11-20T21:14:24.707Z,32
2022-11-20T21:15:24.380Z,30
2022-11-20T21:17:24.380Z,30
2022-11-20T21:20:24.390Z,33
2022-11-20T21:22:24.386Z,32
2022-11-20T21:24:24.642Z,36
2022-11-20T21:26:24.371Z,31
2022-11-20T21:27:24.378Z,34
2022-11-20T21:31:24.373Z,37
2022-11-20T21:32:24.376Z,38
2022-11-20T21:33:24.375Z,35
2022-11-20T21:36:24.378Z,39
2022-11-20T21:37:24.376Z,39
2022-11-20T21:39:24.382Z,37
2022-11-20T21:40:24.380Z,37
2022-11-20T21:44:30.905Z,37
2022-11-20T21:46:24.388Z,38
2022-11-20T21:47:24.392Z,40
2022-11-20T21:49:24.553Z,37
2022-11-20T21:50:24.379Z,41
2022-11-20T21:51:24.386Z,41
2022-11-20T21:52:24.377Z,37
2022-11-20T21:53:24.379Z,34
2022-11-20T21:54:24.644Z,40
2022-11-20T21:56:24.369Z,35
2022-11-20T21:57:24.384Z,34
2022-11-20T21:58:24.380Z,34
2022-11-20T21:59:24.387Z,35
2022-11-20T22:01:24.438Z,34
2022-11-20T22:02:24.371Z,34
2022-11-20T22:03:24.372Z,33
2022-11-20T22:04:24.705Z,31
2022-11-20T22:05:24.376Z,29
2022-11-20T22:06:24.385Z,33
2022-11-20T22:09:24.372Z,26
2022-11-20T22:10:24.374Z,26
2022-11-20T22:11:24.384Z,31
2022-11-20T22:12:24.373Z,29
2022-11-20T22:13:24.377Z,29
2022-11-20T22:14:24.719Z,34
2022-11-20T22:15:58.751Z,29
2022-11-20T22:16:24.377Z,29
2022-11-20T22:18:24.378Z,31
2022-11-20T22:19:24.373Z,34
2022-11-20T22:21:24.376Z,30
2022-11-20T22:22:24.377Z,32
2022-11-20T22:24:24.694Z,29
2022-11-20T22:25:24.383Z,31
2022-11-20T22:26:24.377Z,33
2022-11-20T22:27:24.376Z,29
2022-11-20T22:28:24.373Z,37
2022-11-20T22:29:24.385Z,28
2022-11-20T22:30:24.375Z,30
2022-11-20T22:32:24.386Z,34
2022-11-20T22:33:24.479Z,32
2022-11-20T22:34:24.878Z,31
2022-11-20T22:35:24.375Z,30
2022-11-20T22:36:24.384Z,36
2022-11-20T22:38:29.393Z,31
2022-11-20T22:39:24.381Z,35
2022-11-20T22:41:24.381Z,32
2022-11-20T22:42:24.397Z,35
2022-11-20T22:43:24.379Z,35
2022-11-20T22:44:24.686Z,35
2022-11-20T22:46:24.399Z,35
2022-11-20T22:47:24.378Z,32
2022-11-20T22:49:24.385Z,33
2022-11-20T22:50:24.394Z,32
2022-11-20T22:51:24.374Z,34
2022-11-20T22:52:24.383Z,29
2022-11-20T22:53:24.381Z,35
2022-11-20T22:54:24.772Z,30
2022-11-20T22:55:24.383Z,31
2022-11-20T22:57:24.381Z,32
2022-11-20T22:59:24.383Z,31
2022-11-20T23:00:24.373Z,31
2022-11-20T23:01:24.375Z,31
2022-11-20T23:04:24.468Z,35
2022-11-20T23:05:24.384Z,35
2022-11-20T23:06:24.371Z,29
2022-11-20T23:07:24.448Z,29
2022-11-20T23:08:24.382Z,29
2022-11-20T23:09:24.370Z,35
2022-11-20T23:10:24.391Z,30
2022-11-20T23:11:24.381Z,27
2022-11-20T23:12:24.384Z,31
2022-11-20T23:13:24.381Z,31
2022-11-20T23:15:24.372Z,30
2022-11-20T23:16:24.385Z,29
2022-11-20T23:17:24.386Z,28
2022-11-20T23:18:24.386Z,28
2022-11-20T23:19:24.405Z,24
2022-11-20T23:21:24.379Z,29
2022-11-20T23:22:24.382Z,28
2022-11-20T23:23:24.374Z,26
2022-11-20T23:24:24.630Z,33
2022-11-20T23:25:24.381Z,28
2022-11-20T23:26:24.378Z,25
2022-11-20T23:27:28.248Z,28
2022-11-20T23:28:24.385Z,26
2022-11-20T23:30:24.382Z,23
2022-11-20T23:31:24.377Z,28
2022-11-20T23:32:24.383Z,25
2022-11-20T23:33:24.377Z,22
2022-11-20T23:34:24.571Z,25
2022-11-20T23:35:24.373Z,26
2022-11-20T23:36:24.386Z,24
2022-11-20T23:37:24.766Z,24
2022-11-20T23:39:24.372Z,23
2022-11-20T23:40:24.383Z,22
2022-11-20T23:41:24.384Z,24
2022-11-20T23:42:24.383Z,25
2022-11-20T23:43:24.374Z,28
2022-11-20T23:44:24.499Z,28
2022-11-20T23:45:24.377Z,28
2022-11-20T23:46:24.401Z,24
2022-11-20T23:47:24.380Z,26
2022-11-20T23:48:24.381Z,22
2022-11-20T23:49:24.389Z,24
2022-11-20T23:50:24.386Z,25
2022-11-20T23:51:24.417Z,27
2022-11-20T23:53:24.381Z,26
2022-11-20T23:54:24.612Z,25
2022-11-20T23:55:24.377Z,26
2022-11-20T23:56:24.376Z,26
2022-11-20T23:57:24.383Z,23
2022-11-20T23:58:24.377Z,23
2022-11-20T23:59:24.376Z,25
